createdAt,value
2019-05-06T00:00:58.919Z,6.50
2019-05-06T00:03:24.774Z,11.15
2019-05-06T00:05:54.428Z,10.43
2019-05-06T00:08:23.743Z,6.97
2019-05-06T00:10:54.278Z,11.93
2019-05-06T00:13:24.301Z,6.22
2019-05-06T00:15:54.425Z,7.08
2019-05-06T00:18:24.526Z,6.92
2019-05-06T00:20:57.185Z,10.28
2019-05-06T00:23:29.390Z,10.05
2019-05-06T00:26:20.247Z,8.63
2019-05-06T00:28:53.920Z,6.08
2019-05-06T00:31:23.991Z,5.40
2019-05-06T00:33:54.056Z,8.83
2019-05-06T00:36:23.821Z,9.80
2019-05-06T00:38:56.134Z,10.03
2019-05-06T00:41:29.984Z,8.23
2019-05-06T00:43:59.047Z,8.95
2019-05-06T00:46:28.133Z,9.08
2019-05-06T00:48:57.167Z,5.35
2019-05-06T00:51:26.263Z,9.78
2019-05-06T00:54:03.976Z,9.33
2019-05-06T00:56:34.077Z,12.75
2019-05-06T00:59:04.340Z,11.55
2019-05-06T01:01:34.520Z,9.08
2019-05-06T01:04:05.034Z,6.62
2019-05-06T01:06:34.593Z,7.22
2019-05-06T01:09:06.854Z,11.40
2019-05-06T01:11:35.956Z,5.92
2019-05-06T01:14:14.714Z,8.03
2019-05-06T01:16:43.970Z,9.15
2019-05-06T01:19:14.158Z,9.68
2019-05-06T01:21:44.695Z,5.85
2019-05-06T01:24:14.698Z,7.17
2019-05-06T01:26:44.405Z,10.55
2019-05-06T01:29:14.539Z,8.75
2019-05-06T01:31:46.168Z,7.45
2019-05-06T01:34:14.703Z,8.60
2019-05-06T01:36:43.870Z,6.83
2019-05-06T01:39:20.862Z,6.58
2019-05-06T01:42:04.441Z,5.95
2019-05-06T01:44:34.044Z,7.37
2019-05-06T01:47:03.823Z,6.17
2019-05-06T01:49:33.982Z,8.08
2019-05-06T01:52:04.077Z,7.47
2019-05-06T01:54:34.346Z,7.55
2019-05-06T01:57:04.613Z,6.72
2019-05-06T01:59:34.191Z,6.78
2019-05-06T02:02:04.457Z,6.67
2019-05-06T02:04:33.862Z,8.13
2019-05-06T02:07:03.755Z,9.38
2019-05-06T02:09:34.331Z,6.37
2019-05-06T02:12:04.810Z,7.20
2019-05-06T02:14:34.289Z,5.92
2019-05-06T02:17:03.718Z,7.37
2019-05-06T02:19:34.727Z,6.22
2019-05-06T02:22:18.494Z,8.60
2019-05-06T02:24:51.120Z,6.95
2019-05-06T02:27:20.057Z,6.60
2019-05-06T02:29:54.802Z,6.15
2019-05-06T02:32:36.609Z,7.33
2019-05-06T02:35:18.419Z,7.90
2019-05-06T02:37:47.457Z,7.00
2019-05-06T02:40:20.257Z,6.25
2019-05-06T02:42:49.309Z,7.80
2019-05-06T02:45:23.973Z,6.72
2019-05-06T02:48:04.769Z,8.83
2019-05-06T02:50:53.699Z,8.18
2019-05-06T02:53:25.230Z,5.30
2019-05-06T02:55:54.243Z,5.87
2019-05-06T02:58:27.198Z,6.72
2019-05-06T03:00:56.224Z,7.97
2019-05-06T03:03:25.291Z,9.23
2019-05-06T03:05:54.320Z,6.35
2019-05-06T03:08:23.874Z,6.80
2019-05-06T03:10:53.617Z,7.67
2019-05-06T03:13:23.863Z,6.50
2019-05-06T03:15:54.396Z,7.20
2019-05-06T03:18:24.038Z,6.20
2019-05-06T03:21:17.980Z,12.07
2019-05-06T03:23:53.953Z,5.25
2019-05-06T03:26:23.558Z,5.83
2019-05-06T03:28:53.696Z,8.05
2019-05-06T03:31:26.174Z,7.15
2019-05-06T03:34:16.214Z,10.28
2019-05-06T03:36:31.449Z,6.37
2019-05-06T03:38:55.271Z,9.10
2019-05-06T03:41:26.712Z,7.17
2019-05-06T03:43:55.070Z,7.00
2019-05-06T03:46:33.641Z,6.95
2019-05-06T03:49:04.736Z,6.05
2019-05-06T03:51:34.481Z,6.97
2019-05-06T03:54:04.746Z,8.18
2019-05-06T03:56:34.131Z,8.15
2019-05-06T03:59:04.447Z,7.65
2019-05-06T04:01:33.866Z,5.08
2019-05-06T04:04:03.849Z,7.08
2019-05-06T04:06:33.625Z,11.12
2019-05-06T04:09:04.192Z,7.95
2019-05-06T04:11:36.349Z,9.00
2019-05-06T04:14:06.349Z,6.65
2019-05-06T04:16:48.342Z,9.83
2019-05-06T04:19:24.865Z,9.15
2019-05-06T04:22:07.020Z,7.53
2019-05-06T04:24:48.040Z,6.83
2019-05-06T04:27:43.916Z,10.80
2019-05-06T04:30:14.256Z,11.00
2019-05-06T04:32:43.664Z,7.70
2019-05-06T04:35:13.877Z,6.58
2019-05-06T04:37:43.300Z,7.90
2019-05-06T04:40:13.246Z,9.13
2019-05-06T04:42:44.492Z,6.58
2019-05-06T04:45:17.386Z,10.28
2019-05-06T04:47:44.962Z,10.75
2019-05-06T04:50:15.306Z,7.25
2019-05-06T04:52:44.399Z,6.33
2019-05-06T04:55:14.226Z,8.70
2019-05-06T04:57:44.043Z,7.42
2019-05-06T05:00:13.726Z,8.03
2019-05-06T05:02:46.316Z,9.23
2019-05-06T05:05:14.087Z,9.38
2019-05-06T05:07:43.260Z,8.85
2019-05-06T05:10:18.578Z,8.33
2019-05-06T05:13:06.870Z,8.23
2019-05-06T05:15:45.693Z,6.20
2019-05-06T05:18:27.662Z,6.92
2019-05-06T05:21:06.159Z,7.58
2019-05-06T05:23:35.217Z,6.60
2019-05-06T05:26:04.249Z,7.60
2019-05-06T05:28:33.263Z,7.65
2019-05-06T05:31:03.609Z,8.50
2019-05-06T05:33:32.925Z,9.35
2019-05-06T05:36:02.270Z,7.03
2019-05-06T05:38:32.052Z,6.97
2019-05-06T05:41:03.065Z,6.92
2019-05-06T05:43:39.605Z,6.47
2019-05-06T05:46:09.184Z,9.73
2019-05-06T05:49:02.743Z,6.20
2019-05-06T05:51:32.023Z,8.78
2019-05-06T05:54:02.184Z,11.25
2019-05-06T05:56:33.026Z,7.78
2019-05-06T05:59:03.355Z,7.83
2019-05-06T06:01:32.905Z,10.53
2019-05-06T06:04:03.071Z,9.50
2019-05-06T06:06:33.166Z,10.40
2019-05-06T06:09:03.209Z,8.60
2019-05-06T06:11:55.170Z,9.10
2019-05-06T06:14:47.789Z,9.53
2019-05-06T06:17:44.783Z,6.62
2019-05-06T06:20:32.713Z,9.78
2019-05-06T06:23:08.140Z,14.25
2019-05-06T06:25:37.251Z,9.30
2019-05-06T06:28:06.275Z,14.28
2019-05-06T06:30:43.385Z,8.93
2019-05-06T06:33:12.876Z,8.63
2019-05-06T06:35:51.952Z,10.75
2019-05-06T06:38:35.268Z,11.03
2019-05-06T06:41:04.310Z,9.78
2019-05-06T06:43:33.411Z,10.95
2019-05-06T06:46:02.649Z,7.92
2019-05-06T06:48:32.956Z,8.55
2019-05-06T06:51:03.467Z,10.95
2019-05-06T06:53:32.797Z,9.30
2019-05-06T06:56:29.830Z,11.97
2019-05-06T06:59:25.261Z,9.53
2019-05-06T07:02:02.721Z,8.40
2019-05-06T07:04:37.031Z,17.98
2019-05-06T07:07:06.425Z,11.05
2019-05-06T07:09:35.527Z,11.53
2019-05-06T07:12:04.565Z,10.13
2019-05-06T07:14:36.264Z,11.90
2019-05-06T07:17:04.416Z,8.25
2019-05-06T07:19:38.399Z,8.30
2019-05-06T07:22:07.413Z,8.30
2019-05-06T07:24:36.465Z,7.08
2019-05-06T07:27:25.783Z,7.90
2019-05-06T07:29:54.827Z,8.50
2019-05-06T07:32:23.857Z,7.08
2019-05-06T07:34:53.274Z,6.45
2019-05-06T07:37:22.407Z,7.25
2019-05-06T07:39:52.918Z,8.78
2019-05-06T07:42:28.205Z,11.50
2019-05-06T07:45:25.127Z,7.17
2019-05-06T07:47:57.472Z,10.15
2019-05-06T07:50:26.438Z,10.05
2019-05-06T07:53:08.284Z,6.80
2019-05-06T07:55:38.477Z,9.65
2019-05-06T07:58:08.030Z,8.35
2019-05-06T08:00:37.335Z,7.28
2019-05-06T08:03:06.770Z,8.50
2019-05-06T08:05:35.843Z,10.08
2019-05-06T08:08:05.424Z,8.60
2019-05-06T08:10:34.488Z,10.08
2019-05-06T08:13:03.499Z,11.08
2019-05-06T08:15:33.009Z,8.43
2019-05-06T08:18:03.525Z,9.08
2019-05-06T08:20:39.363Z,6.60
2019-05-06T08:23:35.182Z,8.45
2019-05-06T08:26:12.608Z,7.67
2019-05-06T08:28:40.508Z,8.05
2019-05-06T08:31:05.726Z,7.67
2019-05-06T08:33:34.737Z,5.80
2019-05-06T08:36:11.354Z,6.80
2019-05-06T08:38:54.319Z,6.33
2019-05-06T08:41:23.359Z,7.25
2019-05-06T08:43:52.971Z,8.40
2019-05-06T08:46:23.433Z,8.45
2019-05-06T08:48:52.869Z,5.70
2019-05-06T08:51:29.806Z,6.35
2019-05-06T08:54:04.160Z,5.75
2019-05-06T08:56:33.126Z,6.15
2019-05-06T08:59:03.182Z,6.47
2019-05-06T09:01:49.763Z,7.42
2019-05-06T10:04:45.347Z,7.25
2019-05-06T10:07:14.399Z,8.98
2019-05-06T10:09:43.700Z,11.03
2019-05-06T10:12:12.989Z,11.53
2019-05-06T10:14:43.413Z,9.98
2019-05-06T10:17:13.238Z,11.30
2019-05-06T10:19:43.020Z,12.90
2019-05-06T10:22:12.797Z,12.00
2019-05-06T10:24:43.022Z,9.75
2019-05-06T10:27:12.789Z,13.05
2019-05-06T10:29:52.069Z,13.60
2019-05-06T10:32:29.667Z,12.88
2019-05-06T10:34:58.735Z,11.15
2019-05-06T10:37:33.505Z,12.63
2019-05-06T10:40:13.484Z,11.60
2019-05-06T10:42:48.646Z,16.65
2019-05-06T10:45:26.898Z,12.53
2019-05-06T10:47:56.598Z,14.05
2019-05-06T10:50:26.486Z,11.70
2019-05-06T10:53:32.953Z,14.68
2019-05-06T10:56:23.050Z,11.30
2019-05-06T10:58:52.826Z,13.78
2019-05-06T11:01:27.758Z,14.60
2019-05-06T11:03:56.791Z,10.85
2019-05-06T11:06:25.819Z,12.15
2019-05-06T11:08:54.889Z,13.45
2019-05-06T11:11:32.712Z,11.57
2019-05-06T11:13:54.650Z,12.15
2019-05-06T11:16:23.878Z,13.00
2019-05-06T11:18:53.619Z,13.72
2019-05-06T11:21:23.078Z,13.70
2019-05-06T11:23:52.621Z,12.07
2019-05-06T11:26:23.702Z,9.78
2019-05-06T11:28:57.256Z,12.93
2019-05-06T11:31:48.501Z,9.30
2019-05-06T11:34:25.102Z,11.12
2019-05-06T11:37:15.033Z,11.85
2019-05-06T11:39:44.021Z,11.33
2019-05-06T11:42:28.145Z,12.85
2019-05-06T11:44:44.227Z,13.35
2019-05-06T11:47:13.515Z,13.00
2019-05-06T11:49:44.108Z,11.05
2019-05-06T11:52:13.233Z,13.15
2019-05-06T11:54:42.452Z,14.68
2019-05-06T11:57:12.638Z,13.58
2019-05-06T11:59:43.262Z,17.25
2019-05-06T12:02:16.126Z,10.43
2019-05-06T12:04:45.160Z,15.20
2019-05-06T12:07:15.804Z,10.58
2019-05-06T12:09:45.246Z,12.65
2019-05-06T12:12:14.265Z,10.78
2019-05-06T12:14:43.296Z,12.07
2019-05-06T12:17:12.743Z,12.23
2019-05-06T12:19:43.194Z,11.48
2019-05-06T12:22:12.810Z,6.28
2019-05-06T12:24:43.103Z,8.35
2019-05-06T12:27:15.455Z,5.45
2019-05-06T12:29:44.471Z,4.05
2019-05-06T12:32:37.262Z,5.87
2019-05-06T12:35:06.660Z,6.40
2019-05-06T12:37:37.073Z,7.05
2019-05-06T12:40:06.782Z,8.53
2019-05-06T12:42:43.443Z,10.78
2019-05-06T12:45:37.770Z,8.80
2019-05-06T12:48:13.081Z,11.48
2019-05-06T12:50:43.118Z,11.12
2019-05-06T12:53:13.307Z,9.18
2019-05-06T12:55:43.155Z,10.95
2019-05-06T12:58:13.638Z,9.70
2019-05-06T13:00:44.995Z,10.05
2019-05-06T13:03:14.002Z,12.25
2019-05-06T13:05:43.287Z,11.35
2019-05-06T13:08:19.058Z,11.18
2019-05-06T13:10:43.203Z,13.03
2019-05-06T13:13:12.766Z,12.70
2019-05-06T13:15:43.496Z,10.15
2019-05-06T13:18:12.762Z,8.98
2019-05-06T13:20:50.137Z,9.58
2019-05-06T13:23:37.599Z,10.25
2019-05-06T13:26:06.620Z,10.82
2019-05-06T13:28:38.376Z,13.75
2019-05-06T13:31:19.530Z,11.97
2019-05-06T13:33:45.282Z,10.45
2019-05-06T13:36:14.405Z,9.60
2019-05-06T13:38:43.410Z,8.95
2019-05-06T13:41:12.772Z,8.13
2019-05-06T13:43:50.151Z,6.20
2019-05-06T13:46:23.575Z,7.50
2019-05-06T13:49:14.319Z,7.87
2019-05-06T13:51:55.546Z,10.85
2019-05-06T13:54:24.606Z,9.40
2019-05-06T13:56:53.692Z,8.30
2019-05-06T13:59:22.715Z,9.88
2019-05-06T14:02:10.837Z,10.50
2019-05-06T14:04:39.874Z,9.78
2019-05-06T14:07:09.470Z,12.68
2019-05-06T14:09:40.123Z,10.08
2019-05-06T14:12:09.318Z,11.35
2019-05-06T14:14:38.389Z,11.97
2019-05-06T14:17:07.527Z,13.03
2019-05-06T14:19:36.565Z,10.75
2019-05-06T14:22:05.596Z,8.18
2019-05-06T14:24:35.995Z,6.85
2019-05-06T14:27:08.283Z,9.50
2019-05-06T14:29:43.098Z,10.25
2019-05-06T14:32:14.742Z,10.08
2019-05-06T14:34:43.478Z,13.43
2019-05-06T14:37:12.967Z,8.95
2019-05-06T14:39:53.842Z,10.40
2019-05-06T14:42:16.468Z,11.55
2019-05-06T14:44:45.603Z,12.10
2019-05-06T14:47:26.274Z,10.93
2019-05-06T14:49:55.390Z,9.88
2019-05-06T14:52:24.367Z,9.15
2019-05-06T14:54:55.905Z,10.05
2019-05-06T14:57:25.930Z,7.42
2019-05-06T14:59:55.893Z,7.55
2019-05-06T15:02:27.533Z,6.47
2019-05-06T15:04:56.982Z,6.55
2019-05-06T15:07:26.164Z,8.90
2019-05-06T15:10:08.020Z,7.05
2019-05-06T15:12:27.037Z,9.13
2019-05-06T15:14:56.064Z,6.28
2019-05-06T15:17:25.069Z,8.18
2019-05-06T15:19:54.055Z,7.58
2019-05-06T15:22:23.074Z,7.35
2019-05-06T15:24:53.570Z,7.03
2019-05-06T15:27:23.136Z,8.90
2019-05-06T15:29:55.134Z,7.72
2019-05-06T15:32:34.282Z,9.93
2019-05-06T15:35:12.944Z,5.22
2019-05-06T15:38:03.956Z,5.62
2019-05-06T15:40:36.596Z,5.42
2019-05-06T15:43:03.847Z,8.25
2019-05-06T15:45:32.852Z,6.95
2019-05-06T15:48:02.655Z,9.58
2019-05-06T15:50:32.855Z,7.87
2019-05-06T15:53:02.071Z,10.48
2019-05-06T15:55:32.670Z,6.95
2019-05-06T15:58:03.434Z,7.10
2019-05-06T16:00:33.290Z,6.28
2019-05-06T16:03:02.512Z,4.12
2019-05-06T16:05:34.305Z,5.97
2019-05-06T16:08:02.852Z,6.78
2019-05-06T16:10:37.924Z,6.45
2019-05-06T16:13:02.913Z,4.20
2019-05-06T16:15:33.580Z,4.67
2019-05-06T16:18:04.451Z,6.15
2019-05-06T16:20:33.652Z,9.20
2019-05-06T16:23:22.912Z,4.60
2019-05-06T16:25:52.401Z,6.37
2019-05-06T16:28:22.468Z,4.67
2019-05-06T16:30:53.457Z,4.33
2019-05-06T16:33:22.335Z,6.60
2019-05-06T16:35:52.240Z,6.35
2019-05-06T16:38:22.980Z,5.72
2019-05-06T16:41:02.162Z,4.42
2019-05-06T16:43:22.862Z,3.85
2019-05-06T16:45:53.190Z,3.52
2019-05-06T16:48:22.769Z,5.12
2019-05-06T16:50:51.679Z,4.40
2019-05-06T16:53:22.833Z,4.15
2019-05-06T16:56:16.605Z,3.52
2019-05-06T16:58:49.233Z,6.10
2019-05-06T17:01:18.157Z,2.62
2019-05-06T17:04:03.265Z,3.62
2019-05-06T17:06:37.537Z,4.60
2019-05-06T17:09:20.095Z,2.65
2019-05-06T17:11:39.648Z,4.05
2019-05-06T17:14:08.613Z,4.12
2019-05-06T17:16:37.673Z,5.37
2019-05-06T17:19:06.904Z,4.00
2019-05-06T17:21:35.922Z,6.28
2019-05-06T17:24:05.004Z,6.65
2019-05-06T17:26:34.197Z,7.78
2019-05-06T17:29:14.050Z,7.12
2019-05-06T17:31:51.106Z,4.65
2019-05-06T17:34:24.666Z,2.35
2019-05-06T17:36:55.374Z,3.92
2019-05-06T17:39:24.320Z,6.95
2019-05-06T17:41:53.309Z,4.50
2019-05-06T17:44:23.504Z,4.30
2019-05-06T17:47:02.683Z,3.27
2019-05-06T17:49:32.041Z,5.58
2019-05-06T17:52:14.730Z,6.03
2019-05-06T17:54:43.787Z,6.62
2019-05-06T17:57:12.862Z,5.42
2019-05-06T17:59:42.090Z,2.83
2019-05-06T18:02:15.060Z,3.80
2019-05-06T18:04:44.106Z,4.55
2019-05-06T18:07:13.171Z,5.10
2019-05-06T18:09:42.718Z,3.42
2019-05-06T18:12:12.252Z,3.80
2019-05-06T18:14:43.522Z,5.37
2019-05-06T18:17:15.129Z,6.10
2019-05-06T18:19:44.128Z,7.25
2019-05-06T18:22:13.293Z,6.50
2019-05-06T18:24:42.568Z,4.97
2019-05-06T18:27:13.114Z,3.25
2019-05-06T18:29:42.406Z,5.45
2019-05-06T18:32:12.616Z,3.27
2019-05-06T18:34:41.942Z,3.47
2019-05-06T18:37:12.745Z,4.03
2019-05-06T18:39:42.515Z,3.00
2019-05-06T18:42:19.003Z,2.67
2019-05-06T18:44:42.715Z,3.52
2019-05-06T18:47:12.281Z,4.65
2019-05-06T18:49:42.684Z,2.17
2019-05-06T18:52:13.156Z,1.67
2019-05-06T18:54:42.989Z,2.80
2019-05-06T18:57:12.971Z,1.52
2019-05-06T18:59:42.648Z,1.77
2019-05-06T19:02:13.145Z,3.80
2019-05-06T19:05:03.943Z,4.28
2019-05-06T19:07:33.457Z,3.05
2019-05-06T19:10:07.237Z,2.67
2019-05-06T19:12:40.421Z,2.08
2019-05-06T19:15:06.906Z,3.47
2019-05-06T19:17:35.936Z,4.40
2019-05-06T19:20:05.121Z,4.20
2019-05-06T19:22:34.211Z,5.15
2019-05-06T19:25:03.552Z,3.67
2019-05-06T19:27:33.457Z,5.97
2019-05-06T19:30:02.879Z,6.65
2019-05-06T19:32:34.911Z,8.80
2019-05-06T19:35:03.153Z,8.20
2019-05-06T19:37:32.913Z,5.90
2019-05-06T19:40:02.889Z,3.75
2019-05-06T19:42:43.716Z,6.17
2019-05-06T19:45:03.025Z,8.48
2019-05-06T19:47:33.996Z,6.03
2019-05-06T19:50:02.955Z,4.10
2019-05-06T19:52:32.604Z,4.37
2019-05-06T19:55:03.087Z,2.95
2019-05-06T19:57:32.578Z,2.20
2019-05-06T20:00:03.158Z,2.33
2019-05-06T20:02:32.362Z,2.85
2019-05-06T20:05:05.407Z,2.47
2019-05-06T20:07:43.877Z,2.25
2019-05-06T20:10:35.010Z,3.55
2019-05-06T20:13:05.435Z,3.33
2019-05-06T20:15:38.852Z,2.65
2019-05-06T20:18:09.154Z,1.90
2019-05-06T20:20:39.037Z,1.07
2019-05-06T20:23:08.058Z,3.22
2019-05-06T20:25:37.429Z,4.00
2019-05-06T20:28:06.694Z,2.60
2019-05-06T20:30:35.781Z,2.92
2019-05-06T20:33:05.361Z,1.42
2019-05-06T20:35:34.469Z,4.85
2019-05-06T20:38:03.492Z,2.00
2019-05-06T20:40:32.997Z,2.72
2019-05-06T20:43:16.537Z,1.52
2019-05-06T20:45:35.461Z,3.45
2019-05-06T20:48:04.161Z,1.90
2019-05-06T20:50:33.189Z,1.20
2019-05-06T20:53:03.507Z,1.65
2019-05-06T20:55:35.415Z,2.27
2019-05-06T20:58:03.178Z,2.33
2019-05-06T21:00:33.483Z,1.35
2019-05-06T21:03:02.951Z,2.67
2019-05-06T21:05:32.406Z,2.55
2019-05-06T21:08:02.177Z,1.40
2019-05-06T21:10:32.925Z,2.55
2019-05-06T21:13:02.460Z,2.65
2019-05-06T21:15:32.556Z,1.52
2019-05-06T21:18:04.221Z,2.27
2019-05-06T21:20:33.043Z,1.92
2019-05-06T21:23:02.547Z,2.65
2019-05-06T21:25:32.301Z,1.60
2019-05-06T21:28:02.929Z,2.02
2019-05-06T21:30:32.409Z,1.80
2019-05-06T21:33:01.568Z,3.30
2019-05-06T21:35:30.500Z,3.05
2019-05-06T21:37:59.433Z,2.85
2019-05-06T21:40:28.441Z,3.37
2019-05-06T21:42:57.456Z,1.72
2019-05-06T21:45:26.377Z,2.80
2019-05-06T21:47:55.334Z,1.67
2019-05-06T21:50:24.243Z,2.95
2019-05-06T21:52:53.370Z,3.42
2019-05-06T21:55:22.710Z,3.02
2019-05-06T21:57:52.933Z,3.50
2019-05-06T22:00:27.383Z,2.35
2019-05-06T22:02:56.321Z,3.27
2019-05-06T22:05:25.495Z,2.58
2019-05-06T22:07:54.423Z,2.47
2019-05-06T22:10:25.182Z,4.45
2019-05-06T22:12:54.244Z,3.72
2019-05-06T22:15:23.252Z,3.87
2019-05-06T22:17:54.274Z,3.65
2019-05-06T22:20:23.815Z,3.95
2019-05-06T22:22:53.354Z,3.85
2019-05-06T22:25:22.278Z,3.98
2019-05-06T22:27:51.945Z,6.75
2019-05-06T22:30:23.597Z,5.55
2019-05-06T22:32:52.791Z,4.58
2019-05-06T22:35:23.038Z,4.35
2019-05-06T22:37:52.947Z,4.90
2019-05-06T22:40:23.826Z,4.97
2019-05-06T22:42:53.016Z,3.55
2019-05-06T22:45:22.338Z,3.40
2019-05-06T22:47:53.292Z,3.87
2019-05-06T22:50:22.575Z,3.95
2019-05-06T22:52:52.844Z,2.90
2019-05-06T22:55:22.135Z,4.45
2019-05-06T22:57:52.961Z,3.58
2019-05-06T23:00:23.966Z,3.85
2019-05-06T23:02:58.353Z,3.00
2019-05-06T23:05:27.382Z,5.28
2019-05-06T23:07:56.396Z,5.28
2019-05-06T23:10:25.388Z,5.62
2019-05-06T23:12:54.330Z,3.58
2019-05-06T23:15:23.257Z,3.20
2019-05-06T23:17:52.734Z,3.80
2019-05-06T23:20:24.190Z,4.42
2019-05-06T23:22:52.846Z,5.87
2019-05-06T23:25:22.132Z,2.72
2019-05-06T23:27:52.926Z,3.70
2019-05-06T23:30:23.634Z,3.17
2019-05-06T23:32:53.087Z,4.00
2019-05-06T23:35:22.319Z,3.87
2019-05-06T23:38:27.268Z,3.58
2019-05-06T23:41:32.675Z,4.15
2019-05-06T23:44:45.634Z,3.67
2019-05-06T23:47:44.625Z,4.35
2019-05-06T23:50:49.717Z,4.20
2019-05-06T23:53:54.758Z,5.67
2019-05-06T23:56:59.559Z,6.87
2019-05-06T23:59:28.482Z,4.87
